createdAt,value
2023-01-13T00:00:12.671Z,98297.94
2023-01-13T00:02:39.114Z,98294.69
2023-01-13T00:05:06.029Z,98284.94
2023-01-13T00:07:32.513Z,98294.19
2023-01-13T00:09:58.882Z,98291.75
2023-01-13T00:12:25.248Z,98291.97
2023-01-13T00:14:51.710Z,98293.56
2023-01-13T00:17:18.111Z,98284.41
2023-01-13T00:19:44.694Z,98290.38
2023-01-13T00:22:11.104Z,98284.94
2023-01-13T00:24:37.530Z,98280.09
2023-01-13T00:27:03.943Z,98267.47
2023-01-13T00:29:30.351Z,98273.47
2023-01-13T00:31:56.800Z,98274.88
2023-01-13T00:34:23.267Z,98268.34
2023-01-13T00:36:49.665Z,98273.16
2023-01-13T00:39:16.175Z,98268.53
2023-01-13T00:42:00.937Z,98270.19
2023-01-13T00:44:27.325Z,98267.47
2023-01-13T00:46:53.741Z,98263.13
2023-01-13T00:49:20.182Z,98256.66
2023-01-13T00:51:46.593Z,98252.53
2023-01-13T00:54:13.059Z,98256.28
2023-01-13T00:56:41.053Z,98253.03
2023-01-13T00:59:10.762Z,98243.81
2023-01-13T01:01:37.296Z,98248.41
2023-01-13T01:04:03.871Z,98235.19
2023-01-13T01:06:30.335Z,98238.41
2023-01-13T01:08:56.920Z,98225.97
2023-01-13T01:11:27.912Z,98231.59
2023-01-13T01:13:57.136Z,98227.56
2023-01-13T01:16:26.466Z,98230.00
2023-01-13T01:18:54.606Z,98225.97
2023-01-13T01:21:23.026Z,98225.38
2023-01-13T01:23:49.633Z,98223.19
2023-01-13T01:26:20.518Z,98226.38
2023-01-13T01:28:47.633Z,98226.91
2023-01-13T01:31:25.714Z,98225.50
2023-01-13T01:33:53.856Z,98230.13
2023-01-13T01:36:22.701Z,98223.59
2023-01-13T01:38:50.052Z,98221.41
2023-01-13T01:41:20.784Z,98221.41
2023-01-13T01:43:59.271Z,98221.69
2023-01-13T01:46:44.950Z,98225.50
2023-01-13T01:49:32.902Z,98224.91
2023-01-13T01:52:07.316Z,98227.84
2023-01-13T01:54:52.024Z,98223.31
2023-01-13T01:57:24.327Z,98206.56
2023-01-13T01:59:51.098Z,98209.28
2023-01-13T02:02:18.426Z,98207.97
2023-01-13T02:04:52.699Z,98208.53
2023-01-13T02:07:26.103Z,98207.97
2023-01-13T02:09:55.292Z,98208.25
2023-01-13T02:12:32.330Z,98209.56
2023-01-13T02:15:11.951Z,98211.59
2023-01-13T02:17:53.225Z,98204.78
2023-01-13T02:20:44.540Z,98208.59
2023-01-13T02:23:57.810Z,98192.63
2023-01-13T02:26:55.094Z,98203.47
2023-01-13T02:30:05.185Z,98192.56
2023-01-13T02:32:46.620Z,98193.34
2023-01-13T02:35:32.569Z,98180.41
2023-01-13T02:38:01.223Z,98187.72
2023-01-13T02:40:34.730Z,98189.03
2023-01-13T02:43:42.250Z,98179.91
2023-01-13T02:46:23.268Z,98178.50
2023-01-13T02:48:52.796Z,98175.28
2023-01-13T02:51:25.176Z,98167.16
2023-01-13T02:53:59.923Z,98166.06
2023-01-13T02:56:26.887Z,98159.66
2023-01-13T02:58:56.168Z,98166.06
2023-01-13T03:01:23.069Z,98169.28
2023-01-13T03:03:50.089Z,98157.03
2023-01-13T03:06:16.521Z,98165.47
2023-01-13T03:08:49.708Z,98163.88
2023-01-13T03:11:19.144Z,98158.47
2023-01-13T03:14:17.265Z,98163.88
2023-01-13T03:17:12.075Z,98170.88
2023-01-13T03:19:41.275Z,98168.06
2023-01-13T03:22:19.066Z,98161.28
2023-01-13T03:25:04.250Z,98163.69
2023-01-13T03:28:08.716Z,98153.44
2023-01-13T03:30:53.444Z,98162.06
2023-01-13T03:33:26.159Z,98149.41
2023-01-13T03:35:57.866Z,98147.50
2023-01-13T03:38:31.266Z,98141.81
2023-01-13T03:41:06.550Z,98143.41
2023-01-13T03:43:59.341Z,98136.19
2023-01-13T03:46:31.861Z,98147.00
2023-01-13T03:48:59.801Z,98126.44
2023-01-13T03:51:31.423Z,98128.94
2023-01-13T03:54:05.026Z,98125.25
2023-01-13T03:56:38.644Z,98129.75
2023-01-13T03:59:09.884Z,98134.66
2023-01-13T04:01:48.738Z,98125.97
2023-01-13T04:04:46.261Z,98131.56
2023-01-13T04:07:51.250Z,98126.75
2023-01-13T04:10:27.498Z,98118.09
2023-01-13T04:13:02.672Z,98112.00
2023-01-13T04:15:33.708Z,98100.06
2023-01-13T04:18:23.595Z,98097.63
2023-01-13T04:20:52.311Z,98100.75
2023-01-13T04:23:19.979Z,98099.13
2023-01-13T04:25:47.655Z,98104.06
2023-01-13T04:28:15.026Z,98112.09
2023-01-13T04:30:42.708Z,98114.19
2023-01-13T04:33:10.116Z,98107.66
2023-01-13T04:35:37.023Z,98104.38
2023-01-13T04:38:08.859Z,98101.38
2023-01-13T04:40:35.324Z,98108.69
2023-01-13T04:43:02.338Z,98091.94
2023-01-13T04:45:28.832Z,98088.44
2023-01-13T04:47:55.329Z,98082.50
2023-01-13T04:50:22.792Z,98084.22
2023-01-13T04:52:50.946Z,98077.78
2023-01-13T04:55:18.704Z,98080.19
2023-01-13T04:57:45.142Z,98086.13
2023-01-13T05:00:14.334Z,98095.66
2023-01-13T05:02:40.996Z,98083.22
2023-01-13T05:05:07.801Z,98072.28
2023-01-13T05:07:34.359Z,98079.31
2023-01-13T05:10:00.790Z,98077.22
2023-01-13T05:12:45.860Z,98072.88
2023-01-13T05:15:32.896Z,98094.25
2023-01-13T05:18:00.474Z,98095.06
2023-01-13T05:20:26.897Z,98092.03
2023-01-13T05:23:11.891Z,98085.63
2023-01-13T05:25:44.006Z,98081.22
2023-01-13T05:28:10.760Z,98088.72
2023-01-13T05:30:42.254Z,98095.06
2023-01-13T05:33:14.150Z,98076.38
2023-01-13T05:35:42.685Z,98076.59
2023-01-13T05:38:10.931Z,98090.06
2023-01-13T05:40:59.873Z,98079.22
2023-01-13T05:43:26.917Z,98079.22
2023-01-13T05:45:58.045Z,98071.59
2023-01-13T05:48:30.987Z,98076.00
2023-01-13T05:50:58.049Z,98069.38
2023-01-13T05:53:25.297Z,98081.00
2023-01-13T05:55:52.652Z,98068.69
2023-01-13T05:58:21.003Z,98064.66
2023-01-13T06:00:47.751Z,98068.16
2023-01-13T06:03:16.103Z,98062.75
2023-01-13T06:05:43.020Z,98068.78
2023-01-13T06:08:09.884Z,98080.72
2023-01-13T06:10:36.802Z,98083.59
2023-01-13T06:13:03.817Z,98084.09
2023-01-13T06:15:30.768Z,98084.41
2023-01-13T06:17:57.273Z,98097.63
2023-01-13T06:20:24.970Z,98095.16
2023-01-13T06:22:53.897Z,98096.97
2023-01-13T06:25:26.290Z,98092.34
2023-01-13T06:27:54.831Z,98103.19
2023-01-13T06:30:21.289Z,98102.09
2023-01-13T06:32:55.218Z,98092.03
2023-01-13T06:35:28.582Z,98091.75
2023-01-13T06:37:58.105Z,98089.03
2023-01-13T06:40:24.828Z,98094.34
2023-01-13T06:43:16.119Z,98084.63
2023-01-13T06:46:03.508Z,98082.81
2023-01-13T06:48:35.526Z,98078.19
2023-01-13T06:51:03.888Z,98082.03
2023-01-13T06:53:30.633Z,98083.94
2023-01-13T06:55:57.080Z,98080.50
2023-01-13T06:58:23.537Z,98075.97
2023-01-13T07:00:51.291Z,98078.81
2023-01-13T07:03:18.859Z,98079.38
2023-01-13T07:05:53.139Z,98069.97
2023-01-13T07:08:19.975Z,98067.84
2023-01-13T07:10:46.467Z,98071.38
2023-01-13T07:13:31.331Z,98081.59
2023-01-13T07:16:00.893Z,98086.13
2023-01-13T07:18:31.272Z,98074.09
2023-01-13T07:21:00.367Z,98080.19
2023-01-13T07:23:28.745Z,98072.38
2023-01-13T07:25:59.545Z,98066.16
2023-01-13T07:28:27.720Z,98065.66
2023-01-13T07:30:56.172Z,98070.28
2023-01-13T07:33:23.101Z,98077.00
2023-01-13T07:35:57.405Z,98091.84
2023-01-13T07:38:23.962Z,98092.34
2023-01-13T07:40:50.444Z,98092.03
2023-01-13T07:43:31.998Z,98094.13
2023-01-13T07:46:06.331Z,98093.47
2023-01-13T07:48:34.420Z,98083.13
2023-01-13T07:51:06.416Z,98087.22
2023-01-13T07:53:33.945Z,98083.94
2023-01-13T07:56:01.929Z,98100.09
2023-01-13T07:58:29.044Z,98090.53
2023-01-13T08:00:55.882Z,98093.25
2023-01-13T08:03:23.222Z,98094.53
2023-01-13T08:05:49.888Z,98088.84
2023-01-13T08:08:16.931Z,98097.97
2023-01-13T08:10:43.523Z,98092.78
2023-01-13T08:13:19.209Z,98104.13
2023-01-13T08:15:48.378Z,98106.81
2023-01-13T08:18:14.937Z,98111.13
2023-01-13T08:20:41.714Z,98112.75
2023-01-13T08:23:11.761Z,98114.34
2023-01-13T08:25:38.520Z,98114.25
2023-01-13T08:28:05.097Z,98120.38
2023-01-13T08:30:34.566Z,98117.75
2023-01-13T08:33:01.617Z,98131.50
2023-01-13T08:35:28.045Z,98138.03
2023-01-13T08:37:54.510Z,98141.03
2023-01-13T08:40:22.254Z,98148.97
2023-01-13T08:42:48.960Z,98147.47
2023-01-13T08:45:15.857Z,98141.03
2023-01-13T08:47:42.258Z,98153.09
2023-01-13T08:50:09.365Z,98170.78
2023-01-13T08:52:35.775Z,98179.63
2023-01-13T08:55:02.309Z,98181.13
2023-01-13T08:57:28.853Z,98187.41
2023-01-13T08:59:55.469Z,98189.94
2023-01-13T09:02:23.784Z,98206.78
2023-01-13T09:04:50.731Z,98210.69
2023-01-13T09:07:17.776Z,98229.69
2023-01-13T09:09:44.323Z,98234.09
2023-01-13T09:12:31.313Z,98252.91
2023-01-13T09:14:57.895Z,98265.56
2023-01-13T09:17:24.350Z,98262.50
2023-01-13T09:19:50.813Z,98273.75
2023-01-13T09:22:19.264Z,98280.41
2023-01-13T09:24:46.525Z,98275.63
2023-01-13T09:27:15.078Z,98269.78
2023-01-13T09:29:41.685Z,98269.84
2023-01-13T09:32:12.241Z,98273.09
2023-01-13T09:35:06.351Z,98271.00
2023-01-13T09:37:38.253Z,98273.69
2023-01-13T09:40:26.714Z,98275.00
2023-01-13T09:43:19.671Z,98273.63
2023-01-13T09:45:50.357Z,98287.91
2023-01-13T09:48:25.296Z,98282.72
2023-01-13T09:51:19.349Z,98281.84
2023-01-13T09:53:56.813Z,98275.03
2023-01-13T09:56:24.492Z,98282.31
2023-01-13T09:58:50.964Z,98279.00
2023-01-13T10:01:29.750Z,98275.44
2023-01-13T10:03:56.322Z,98284.84
2023-01-13T10:06:35.208Z,98304.31
2023-01-13T10:09:02.079Z,98305.13
2023-01-13T10:12:01.883Z,98312.16
2023-01-13T10:14:41.962Z,98298.31
2023-01-13T10:17:20.937Z,98286.69
2023-01-13T10:20:01.872Z,98291.88
2023-01-13T10:22:58.009Z,98289.25
2023-01-13T10:26:09.411Z,98302.03
2023-01-13T10:28:36.092Z,98288.56
2023-01-13T10:31:11.584Z,98297.78
2023-01-13T10:33:38.346Z,98294.56
2023-01-13T10:36:21.408Z,98311.06
2023-01-13T10:38:50.223Z,98309.75
2023-01-13T10:41:23.116Z,98313.56
2023-01-13T10:43:52.608Z,98313.56
2023-01-13T10:46:20.580Z,98311.94
2023-01-13T10:48:55.947Z,98324.66
2023-01-13T10:51:27.313Z,98329.19
2023-01-13T10:54:01.682Z,98330.88
2023-01-13T10:56:37.588Z,98328.72
2023-01-13T10:59:19.677Z,98351.25
2023-01-13T11:02:31.268Z,98345.97
2023-01-13T11:05:04.324Z,98335.38
2023-01-13T11:07:45.426Z,98336.00
2023-01-13T11:10:18.343Z,98320.09
2023-01-13T11:13:03.634Z,98325.00
2023-01-13T11:15:53.688Z,98333.09
2023-01-13T11:18:34.837Z,98321.22
2023-01-13T11:21:04.846Z,98335.81
2023-01-13T11:23:37.116Z,98329.59
2023-01-13T11:26:11.253Z,98336.59
2023-01-13T11:28:59.119Z,98348.22
2023-01-13T11:31:41.327Z,98360.63
2023-01-13T11:34:22.637Z,98336.88
2023-01-13T11:36:55.314Z,98337.94
2023-01-13T11:39:26.083Z,98350.63
2023-01-13T11:42:16.813Z,98348.22
2023-01-13T11:44:54.429Z,98358.50
2023-01-13T11:47:24.788Z,98351.50
2023-01-13T11:49:51.250Z,98349.06
2023-01-13T11:52:23.376Z,98342.00
2023-01-13T11:54:56.672Z,98340.63
2023-01-13T11:57:35.114Z,98344.91
2023-01-13T12:00:04.533Z,98346.47
2023-01-13T12:02:58.572Z,98349.16
2023-01-13T12:05:41.333Z,98329.16
2023-01-13T12:08:18.136Z,98323.66
2023-01-13T12:11:05.380Z,98319.00
2023-01-13T12:13:47.368Z,98333.00
2023-01-13T12:16:19.857Z,98327.16
2023-01-13T12:19:07.417Z,98330.00
2023-01-13T12:21:57.504Z,98336.22
2023-01-13T12:24:57.931Z,98342.81
2023-01-13T12:27:58.733Z,98343.47
2023-01-13T12:30:46.073Z,98340.22
2023-01-13T12:33:29.195Z,98343.91
2023-01-13T12:36:14.581Z,98349.41
2023-01-13T12:38:58.355Z,98361.84
2023-01-13T12:42:08.310Z,98353.72
2023-01-13T12:44:34.782Z,98361.91
2023-01-13T12:47:02.128Z,98371.84
2023-01-13T12:49:33.901Z,98361.44
2023-01-13T12:52:10.774Z,98373.56
2023-01-13T12:54:37.901Z,98389.56
2023-01-13T12:57:16.480Z,98400.56
2023-01-13T13:00:06.354Z,98385.28
2023-01-13T13:02:37.126Z,98394.50
2023-01-13T13:05:15.723Z,98396.41
2023-01-13T13:07:47.295Z,98396.41
2023-01-13T13:10:31.456Z,98394.41
2023-01-13T13:13:19.169Z,98372.38
2023-01-13T13:15:50.420Z,98374.22
2023-01-13T13:18:16.751Z,98382.34
2023-01-13T13:21:09.153Z,98389.88
2023-01-13T13:23:57.220Z,98370.28
2023-01-13T13:26:42.357Z,98378.72
2023-01-13T13:29:20.281Z,98369.13
2023-01-13T13:32:08.304Z,98372.72
2023-01-13T13:35:02.730Z,98376.69
2023-01-13T13:37:33.406Z,98397.50
2023-01-13T13:40:27.284Z,98395.31
2023-01-13T13:43:16.147Z,98390.38
2023-01-13T13:46:11.126Z,98399.94
2023-01-13T13:48:37.728Z,98396.88
2023-01-13T13:51:23.565Z,98395.00
2023-01-13T13:53:50.026Z,98390.41
2023-01-13T13:56:20.724Z,98394.88
2023-01-13T13:58:50.395Z,98429.19
2023-01-13T14:01:24.720Z,98425.28
2023-01-13T14:04:15.549Z,98441.34
2023-01-13T14:07:00.370Z,98436.56
2023-01-13T14:09:29.329Z,98448.09
2023-01-13T14:12:02.182Z,98475.56
2023-01-13T14:14:29.511Z,98472.19
2023-01-13T14:16:56.396Z,98472.31
2023-01-13T14:19:30.407Z,98491.91
2023-01-13T14:22:01.238Z,98487.00
2023-01-13T14:24:29.385Z,98504.56
2023-01-13T14:27:17.466Z,98494.75
2023-01-13T14:29:45.118Z,98498.09
2023-01-13T14:32:18.299Z,98487.88
2023-01-13T14:34:44.739Z,98479.28
2023-01-13T14:37:33.876Z,98476.34
2023-01-13T14:40:00.463Z,98469.06
2023-01-13T14:42:28.495Z,98482.56
2023-01-13T14:44:56.401Z,98484.22
2023-01-13T14:47:27.999Z,98481.78
2023-01-13T14:50:27.582Z,98491.75
2023-01-13T14:52:56.846Z,98489.06
2023-01-13T14:55:37.587Z,98497.44
2023-01-13T14:58:22.559Z,98502.88
2023-01-13T15:00:50.891Z,98505.31
2023-01-13T15:03:19.745Z,98504.78
2023-01-13T15:05:53.395Z,98515.28
2023-01-13T15:08:23.985Z,98505.06
2023-01-13T15:10:54.880Z,98516.13
2023-01-13T15:13:44.276Z,98511.00
2023-01-13T15:16:20.641Z,98516.41
2023-01-13T15:18:48.117Z,98536.09
2023-01-13T15:21:15.763Z,98525.84
2023-01-13T15:23:42.797Z,98533.41
2023-01-13T15:26:20.504Z,98534.47
2023-01-13T15:28:47.626Z,98534.47
2023-01-13T15:31:14.616Z,98538.78
2023-01-13T15:33:41.646Z,98540.41
2023-01-13T15:36:32.243Z,98531.78
2023-01-13T15:39:00.134Z,98536.09
2023-01-13T15:41:47.372Z,98545.00
2023-01-13T15:44:34.305Z,98552.00
2023-01-13T15:47:07.458Z,98551.47
2023-01-13T15:49:36.895Z,98546.34
2023-01-13T15:52:19.899Z,98545.53
2023-01-13T15:54:46.471Z,98553.88
2023-01-13T15:57:24.745Z,98559.81
2023-01-13T15:59:53.174Z,98570.09
2023-01-13T16:02:20.103Z,98570.59
2023-01-13T16:04:46.716Z,98577.88
2023-01-13T16:07:16.132Z,98573.84
2023-01-13T16:09:43.311Z,98599.19
2023-01-13T16:12:09.744Z,98607.28
2023-01-13T16:14:36.260Z,98615.38
2023-01-13T16:17:04.174Z,98605.09
2023-01-13T16:19:31.245Z,98609.97
2023-01-13T16:21:59.764Z,98611.84
2023-01-13T16:24:26.227Z,98616.97
2023-01-13T16:26:52.649Z,98628.84
2023-01-13T16:29:19.072Z,98620.75
2023-01-13T16:31:45.627Z,98625.03
2023-01-13T16:34:12.053Z,98633.66
2023-01-13T16:36:38.570Z,98638.53
2023-01-13T16:39:17.976Z,98625.03
2023-01-13T16:41:47.398Z,98633.66
2023-01-13T16:44:13.954Z,98636.88
2023-01-13T16:46:40.695Z,98637.94
2023-01-13T16:49:07.198Z,98649.25
2023-01-13T16:51:33.841Z,98646.00
2023-01-13T16:54:00.268Z,98646.53
2023-01-13T16:56:32.004Z,98647.06
2023-01-13T16:59:01.500Z,98645.44
2023-01-13T17:01:30.218Z,98652.94
2023-01-13T17:03:57.573Z,98652.16
2023-01-13T17:06:37.313Z,98666.66
2023-01-13T17:09:18.971Z,98673.94
2023-01-13T17:11:45.469Z,98680.34
2023-01-13T17:14:19.199Z,98686.25
2023-01-13T17:16:47.121Z,98688.41
2023-01-13T17:19:13.574Z,98691.63
2023-01-13T17:21:40.503Z,98685.22
2023-01-13T17:24:07.995Z,98697.09
2023-01-13T17:26:42.105Z,98694.44
2023-01-13T17:29:12.738Z,98706.81
2023-01-13T17:31:39.219Z,98708.19
2023-01-13T17:34:05.641Z,98713.59
2023-01-13T17:36:32.875Z,98709.06
2023-01-13T17:38:59.263Z,98709.66
2023-01-13T17:41:26.469Z,98699.44
2023-01-13T17:43:53.640Z,98699.47
2023-01-13T17:46:22.729Z,98706.22
2023-01-13T17:48:50.862Z,98715.66
2023-01-13T17:51:18.031Z,98722.41
2023-01-13T17:53:45.430Z,98722.44
2023-01-13T17:56:13.956Z,98726.22
2023-01-13T17:58:45.486Z,98717.03
2023-01-13T18:01:18.502Z,98726.22
2023-01-13T18:03:45.150Z,98728.66
2023-01-13T18:06:23.499Z,98728.09
2023-01-13T18:08:50.844Z,98731.34
2023-01-13T18:11:19.418Z,98737.56
2023-01-13T18:13:47.132Z,98735.66
2023-01-13T18:16:15.689Z,98737.81
2023-01-13T18:18:44.898Z,98742.63
2023-01-13T18:21:44.987Z,98750.19
2023-01-13T18:24:32.506Z,98753.41
2023-01-13T18:27:18.266Z,98761.19
2023-01-13T18:29:48.015Z,98761.19
2023-01-13T18:32:14.792Z,98756.06
2023-01-13T18:34:41.673Z,98757.63
2023-01-13T18:37:12.187Z,98760.59
2023-01-13T18:39:38.631Z,98759.75
2023-01-13T18:42:25.124Z,98768.94
2023-01-13T18:44:52.565Z,98779.72
2023-01-13T18:47:19.181Z,98774.81
2023-01-13T18:49:49.005Z,98784.00
2023-01-13T18:52:15.476Z,98781.84
2023-01-13T18:54:41.938Z,98786.69
2023-01-13T18:57:08.352Z,98796.13
2023-01-13T18:59:34.911Z,98805.53
2023-01-13T19:02:02.436Z,98807.97
2023-01-13T19:04:29.324Z,98816.63
2023-01-13T19:07:00.300Z,98814.47
2023-01-13T19:09:28.705Z,98816.91
2023-01-13T19:11:57.047Z,98816.91
2023-01-13T19:14:42.123Z,98813.66
2023-01-13T19:17:14.240Z,98828.75
2023-01-13T19:19:43.784Z,98828.47
2023-01-13T19:22:11.840Z,98840.84
2023-01-13T19:24:41.934Z,98843.50
2023-01-13T19:27:14.415Z,98847.00
2023-01-13T19:29:43.228Z,98853.19
2023-01-13T19:32:18.788Z,98864.78
2023-01-13T19:34:46.790Z,98870.66
2023-01-13T19:37:15.602Z,98871.19
2023-01-13T19:39:41.991Z,98886.28
2023-01-13T19:42:29.672Z,98886.28
2023-01-13T19:45:15.177Z,98879.81
2023-01-13T19:47:42.719Z,98887.63
2023-01-13T19:50:09.926Z,98893.84
2023-01-13T19:52:36.351Z,98896.31
2023-01-13T19:55:02.830Z,98906.25
2023-01-13T19:57:29.845Z,98915.16
2023-01-13T19:59:56.396Z,98922.44
2023-01-13T20:02:31.404Z,98930.25
2023-01-13T20:05:00.062Z,98932.69
2023-01-13T20:07:28.492Z,98922.72
2023-01-13T20:09:58.219Z,98924.31
2023-01-13T20:12:25.865Z,98920.56
2023-01-13T20:14:53.606Z,98926.78
2023-01-13T20:17:21.516Z,98925.13
2023-01-13T20:19:50.589Z,98920.28
2023-01-13T20:22:17.068Z,98915.41
2023-01-13T20:24:43.475Z,98922.94
2023-01-13T20:27:10.012Z,98939.09
2023-01-13T20:29:36.673Z,98924.00
2023-01-13T20:32:03.461Z,98941.25
2023-01-13T20:34:29.936Z,98947.97
2023-01-13T20:36:56.493Z,98956.81
2023-01-13T20:39:26.336Z,98942.47
2023-01-13T20:42:11.345Z,98935.94
2023-01-13T20:44:37.811Z,98945.34
2023-01-13T20:47:04.685Z,98945.84
2023-01-13T20:49:31.297Z,98943.44
2023-01-13T20:51:58.370Z,98946.34
2023-01-13T20:54:25.243Z,98940.38
2023-01-13T20:56:52.164Z,98941.91
2023-01-13T20:59:18.800Z,98948.56
2023-01-13T21:01:45.256Z,98940.69
2023-01-13T21:04:11.734Z,98946.59
2023-01-13T21:06:39.596Z,98955.16
2023-01-13T21:09:06.062Z,98947.06
2023-01-13T21:11:50.837Z,98952.47
2023-01-13T21:14:42.232Z,98946.25
2023-01-13T21:17:32.123Z,98957.34
2023-01-13T21:19:59.354Z,98958.97
2023-01-13T21:22:26.325Z,98962.75
2023-01-13T21:24:52.855Z,98963.84
2023-01-13T21:27:19.775Z,98976.75
2023-01-13T21:29:46.327Z,98975.34
2023-01-13T21:32:13.017Z,98974.78
2023-01-13T21:34:39.605Z,98974.72
2023-01-13T21:37:06.140Z,98970.94
2023-01-13T21:39:32.576Z,98971.19
2023-01-13T21:42:17.604Z,98970.34
2023-01-13T21:45:03.196Z,98966.63
2023-01-13T21:47:48.037Z,98964.75
2023-01-13T21:50:23.169Z,98975.00
2023-01-13T21:52:52.273Z,98976.94
2023-01-13T21:55:21.468Z,98989.66
2023-01-13T21:57:49.460Z,98996.13
2023-01-13T22:00:17.715Z,99002.66
2023-01-13T22:02:44.243Z,98999.19
2023-01-13T22:05:12.532Z,98992.50
2023-01-13T22:07:40.543Z,99002.75
2023-01-13T22:10:10.635Z,98997.88
2023-01-13T22:12:37.280Z,99014.03
2023-01-13T22:15:04.164Z,99010.56
2023-01-13T22:17:31.666Z,99016.28
2023-01-13T22:19:59.696Z,99006.56
2023-01-13T22:22:26.846Z,99005.19
2023-01-13T22:24:54.202Z,99014.03
2023-01-13T22:27:25.827Z,99008.03
2023-01-13T22:29:53.163Z,99023.56
2023-01-13T22:32:20.923Z,99015.16
2023-01-13T22:34:48.157Z,99025.03
2023-01-13T22:37:14.922Z,99023.13
2023-01-13T22:39:41.387Z,99022.31
2023-01-13T22:42:08.049Z,99012.00
2023-01-13T22:44:34.454Z,99016.03
2023-01-13T22:47:00.829Z,99010.91
2023-01-13T22:49:27.385Z,99022.47
2023-01-13T22:51:54.102Z,99019.44
2023-01-13T22:54:20.588Z,99012.38
2023-01-13T22:56:46.970Z,99011.28
2023-01-13T22:59:14.418Z,99014.69
2023-01-13T23:01:42.131Z,99012.50
2023-01-13T23:04:12.888Z,99016.81
2023-01-13T23:06:40.229Z,99011.69
2023-01-13T23:09:07.797Z,99002.25
2023-01-13T23:11:35.227Z,99004.63
2023-01-13T23:14:04.112Z,99017.47
2023-01-13T23:16:32.696Z,99023.94
2023-01-13T23:18:59.307Z,99034.44
2023-01-13T23:21:29.353Z,99033.63
2023-01-13T23:23:58.339Z,99036.38
2023-01-13T23:26:25.608Z,99031.09
2023-01-13T23:28:52.030Z,99023.66
2023-01-13T23:31:22.082Z,99024.75
2023-01-13T23:33:48.864Z,99026.47
2023-01-13T23:36:21.708Z,99030.28
2023-01-13T23:38:48.173Z,99038.47
2023-01-13T23:41:17.297Z,99032.25
2023-01-13T23:43:44.108Z,99035.16
2023-01-13T23:46:12.985Z,99029.47
2023-01-13T23:48:39.741Z,99028.06
2023-01-13T23:51:10.473Z,99020.00
2023-01-13T23:53:40.411Z,99018.38
2023-01-13T23:56:10.852Z,99016.75
2023-01-13T23:58:37.315Z,99010.81
